createdAt,value
2022-12-12T00:00:54.357Z,0.00
2022-12-12T00:01:54.168Z,0.00
2022-12-12T00:02:54.281Z,0.00
2022-12-12T00:03:54.237Z,0.00
2022-12-12T00:04:54.077Z,0.00
2022-12-12T00:05:54.050Z,0.00
2022-12-12T00:06:54.017Z,0.00
2022-12-12T00:07:54.067Z,0.00
2022-12-12T00:08:53.963Z,0.00
2022-12-12T00:09:53.923Z,0.00
2022-12-12T00:10:53.890Z,0.00
2022-12-12T00:11:53.875Z,0.00
2022-12-12T00:12:53.830Z,0.00
2022-12-12T00:13:53.840Z,0.00
2022-12-12T00:14:53.770Z,0.00
2022-12-12T00:15:53.798Z,0.00
2022-12-12T00:16:53.708Z,0.00
2022-12-12T00:17:53.681Z,0.00
2022-12-12T00:18:53.646Z,0.00
2022-12-12T00:19:53.617Z,0.00
2022-12-12T00:20:53.588Z,0.00
2022-12-12T00:21:53.555Z,0.00
2022-12-12T00:22:53.523Z,0.00
2022-12-12T00:23:53.499Z,0.00
2022-12-12T00:24:53.464Z,0.00
2022-12-12T00:25:53.436Z,0.00
2022-12-12T00:26:53.401Z,0.00
2022-12-12T00:27:53.370Z,0.00
2022-12-12T00:28:53.369Z,0.00
2022-12-12T00:29:53.361Z,0.00
2022-12-12T00:30:53.344Z,0.00
2022-12-12T00:31:53.255Z,0.00
2022-12-12T00:32:53.224Z,0.00
2022-12-12T00:33:53.189Z,0.00
2022-12-12T00:34:53.156Z,0.00
2022-12-12T00:35:53.125Z,0.00
2022-12-12T00:36:53.099Z,0.00
2022-12-12T00:37:53.069Z,0.00
2022-12-12T00:38:53.036Z,0.00
2022-12-12T00:39:53.004Z,0.00
2022-12-12T00:40:52.973Z,0.00
2022-12-12T00:41:52.948Z,0.00
2022-12-12T00:42:52.910Z,0.00
2022-12-12T00:43:52.883Z,0.00
2022-12-12T00:44:52.857Z,0.00
2022-12-12T00:45:52.843Z,0.00
2022-12-12T00:46:52.823Z,0.00
2022-12-12T00:47:52.762Z,0.00
2022-12-12T00:48:52.726Z,0.00
2022-12-12T00:49:52.699Z,0.00
2022-12-12T00:50:52.667Z,0.00
2022-12-12T00:51:52.643Z,0.00
2022-12-12T00:52:52.605Z,0.00
2022-12-12T00:53:52.576Z,0.00
2022-12-12T00:54:52.583Z,0.00
2022-12-12T00:55:52.517Z,0.00
2022-12-12T00:56:52.481Z,0.00
2022-12-12T00:57:52.455Z,0.00
2022-12-12T00:58:52.423Z,0.00
2022-12-12T00:59:52.393Z,0.00
2022-12-12T01:00:52.358Z,0.00
2022-12-12T01:01:52.410Z,0.00
2022-12-12T01:02:52.335Z,0.00
2022-12-12T01:03:52.271Z,0.00
2022-12-12T01:04:52.240Z,0.00
2022-12-12T01:05:52.209Z,0.00
2022-12-12T01:06:52.176Z,0.00
2022-12-12T01:07:52.176Z,0.00
2022-12-12T01:08:52.119Z,0.00
2022-12-12T01:09:52.086Z,0.00
2022-12-12T01:10:52.052Z,0.00
2022-12-12T01:11:52.024Z,0.00
2022-12-12T01:12:52.011Z,0.00
2022-12-12T01:13:51.962Z,0.00
2022-12-12T01:14:51.931Z,0.00
2022-12-12T01:15:51.937Z,0.00
2022-12-12T01:16:51.868Z,0.00
2022-12-12T01:17:51.867Z,0.00
2022-12-12T01:18:51.807Z,0.00
2022-12-12T01:19:51.778Z,0.00
2022-12-12T01:20:51.749Z,0.00
2022-12-12T01:21:51.721Z,0.00
2022-12-12T01:22:51.684Z,0.00
2022-12-12T01:23:51.660Z,0.00
2022-12-12T01:24:51.625Z,0.00
2022-12-12T01:25:51.597Z,0.00
2022-12-12T01:26:51.562Z,0.00
2022-12-12T01:27:51.536Z,0.00
2022-12-12T01:28:51.504Z,0.00
2022-12-12T01:29:51.476Z,0.00
2022-12-12T01:30:51.443Z,0.00
2022-12-12T01:31:51.410Z,0.00
2022-12-12T01:32:51.380Z,0.00
2022-12-12T01:33:51.376Z,0.00
2022-12-12T01:34:51.323Z,0.00
2022-12-12T01:35:51.290Z,0.00
2022-12-12T01:36:51.259Z,0.00
2022-12-12T01:37:51.230Z,0.00
2022-12-12T01:38:51.194Z,0.00
2022-12-12T01:39:51.168Z,0.00
2022-12-12T01:40:51.135Z,0.00
2022-12-12T01:41:51.108Z,0.00
2022-12-12T01:42:51.072Z,0.00
2022-12-12T01:43:51.051Z,0.00
2022-12-12T01:44:51.012Z,0.00
2022-12-12T01:45:50.984Z,0.00
2022-12-12T01:46:51.030Z,0.00
2022-12-12T01:47:50.922Z,0.00
2022-12-12T01:48:50.891Z,0.00
2022-12-12T01:49:50.879Z,0.00
2022-12-12T01:50:50.831Z,0.00
2022-12-12T01:51:50.801Z,0.00
2022-12-12T01:52:50.773Z,0.00
2022-12-12T01:53:50.778Z,0.00
2022-12-12T01:54:50.708Z,0.00
2022-12-12T01:55:50.677Z,0.00
2022-12-12T01:56:50.644Z,0.00
2022-12-12T01:57:50.618Z,0.00
2022-12-12T01:58:50.583Z,0.00
2022-12-12T01:59:50.558Z,0.00
2022-12-12T02:00:50.549Z,0.00
2022-12-12T02:01:50.560Z,0.00
2022-12-12T02:02:50.464Z,0.00
2022-12-12T02:03:50.434Z,0.00
2022-12-12T02:04:50.400Z,0.00
2022-12-12T02:05:50.398Z,0.00
2022-12-12T02:06:50.339Z,0.00
2022-12-12T02:07:50.344Z,0.00
2022-12-12T02:08:50.276Z,0.00
2022-12-12T02:09:50.250Z,0.00
2022-12-12T02:10:50.219Z,0.00
2022-12-12T02:11:50.187Z,0.00
2022-12-12T02:12:50.155Z,0.00
2022-12-12T02:13:50.127Z,0.00
2022-12-12T02:14:50.092Z,0.00
2022-12-12T02:15:50.124Z,0.00
2022-12-12T02:16:50.032Z,0.00
2022-12-12T02:17:50.004Z,0.00
2022-12-12T02:18:49.972Z,0.00
2022-12-12T02:19:49.942Z,0.00
2022-12-12T02:20:49.912Z,0.00
2022-12-12T02:21:49.899Z,0.00
2022-12-12T02:22:49.851Z,0.00
2022-12-12T02:23:49.817Z,0.00
2022-12-12T02:24:49.785Z,0.00
2022-12-12T02:25:49.760Z,0.00
2022-12-12T02:26:49.727Z,0.00
2022-12-12T02:27:49.695Z,0.00
2022-12-12T02:28:49.668Z,0.00
2022-12-12T02:29:49.632Z,0.00
2022-12-12T02:30:49.606Z,0.00
2022-12-12T02:31:49.617Z,0.00
2022-12-12T02:32:49.544Z,0.00
2022-12-12T02:33:49.512Z,0.00
2022-12-12T02:34:49.495Z,0.00
2022-12-12T02:35:49.452Z,0.00
2022-12-12T02:36:49.421Z,0.00
2022-12-12T02:37:49.410Z,0.00
2022-12-12T02:38:49.370Z,0.00
2022-12-12T02:39:49.366Z,0.00
2022-12-12T02:40:49.298Z,0.00
2022-12-12T02:41:49.266Z,0.00
2022-12-12T02:42:49.237Z,0.00
2022-12-12T02:43:49.207Z,0.00
2022-12-12T02:44:49.178Z,0.00
2022-12-12T02:45:49.146Z,0.00
2022-12-12T02:46:49.150Z,0.00
2022-12-12T02:47:49.084Z,0.00
2022-12-12T02:48:49.057Z,0.00
2022-12-12T02:49:49.021Z,0.00
2022-12-12T02:50:48.992Z,0.00
2022-12-12T02:51:48.960Z,0.00
2022-12-12T02:52:48.931Z,0.00
2022-12-12T02:53:48.920Z,0.00
2022-12-12T02:54:48.878Z,0.00
2022-12-12T02:55:48.838Z,0.00
2022-12-12T02:56:48.810Z,0.00
2022-12-12T02:57:48.775Z,0.00
2022-12-12T02:58:48.745Z,0.00
2022-12-12T02:59:48.717Z,0.00
2022-12-12T03:00:48.788Z,0.00
2022-12-12T03:01:48.674Z,0.00
2022-12-12T03:02:48.625Z,0.00
2022-12-12T03:03:48.591Z,0.00
2022-12-12T03:04:48.614Z,0.00
2022-12-12T03:05:48.531Z,0.00
2022-12-12T03:06:48.500Z,0.00
2022-12-12T03:07:48.509Z,0.00
2022-12-12T03:08:48.438Z,0.00
2022-12-12T03:09:48.426Z,0.00
2022-12-12T03:10:48.379Z,0.00
2022-12-12T03:11:48.346Z,0.00
2022-12-12T03:12:48.318Z,0.00
2022-12-12T03:13:48.285Z,0.00
2022-12-12T03:14:48.256Z,0.00
2022-12-12T03:15:48.220Z,0.00
2022-12-12T03:16:48.191Z,0.00
2022-12-12T03:17:48.162Z,0.00
2022-12-12T03:18:48.130Z,0.00
2022-12-12T03:19:48.099Z,0.00
2022-12-12T03:20:48.071Z,0.00
2022-12-12T03:21:48.037Z,0.00
2022-12-12T03:22:48.007Z,0.00
2022-12-12T03:23:47.974Z,0.00
2022-12-12T03:24:47.952Z,0.00
2022-12-12T03:25:47.938Z,0.00
2022-12-12T03:26:47.884Z,0.00
2022-12-12T03:27:47.852Z,0.00
2022-12-12T03:28:47.828Z,0.00
2022-12-12T03:29:47.789Z,0.00
2022-12-12T03:30:47.759Z,0.00
2022-12-12T03:31:47.854Z,0.00
2022-12-12T03:32:47.698Z,0.00
2022-12-12T03:33:47.670Z,0.00
2022-12-12T03:34:47.640Z,0.00
2022-12-12T03:35:47.605Z,0.00
2022-12-12T03:36:47.577Z,0.00
2022-12-12T03:37:47.544Z,0.00
2022-12-12T03:38:47.513Z,0.00
2022-12-12T03:39:47.484Z,0.00
2022-12-12T03:40:47.454Z,0.00
2022-12-12T03:41:47.438Z,0.00
2022-12-12T03:42:47.391Z,0.00
2022-12-12T03:43:47.360Z,0.00
2022-12-12T03:44:47.330Z,0.00
2022-12-12T03:45:47.349Z,0.00
2022-12-12T03:46:47.269Z,0.00
2022-12-12T03:47:47.235Z,0.00
2022-12-12T03:48:47.206Z,0.00
2022-12-12T03:49:47.173Z,0.00
2022-12-12T03:50:47.142Z,0.00
2022-12-12T03:51:47.111Z,0.00
2022-12-12T03:52:47.082Z,0.00
2022-12-12T03:53:47.054Z,0.00
2022-12-12T03:54:47.023Z,0.00
2022-12-12T03:55:46.989Z,0.00
2022-12-12T03:56:46.960Z,0.00
2022-12-12T03:57:46.945Z,0.00
2022-12-12T03:58:46.897Z,0.00
2022-12-12T03:59:46.869Z,0.00
2022-12-12T04:00:46.848Z,0.00
2022-12-12T04:01:46.803Z,0.00
2022-12-12T04:02:46.774Z,0.00
2022-12-12T04:03:46.743Z,0.00
2022-12-12T04:04:46.714Z,0.00
2022-12-12T04:05:46.681Z,0.00
2022-12-12T04:06:46.668Z,0.00
2022-12-12T04:07:46.669Z,0.00
2022-12-12T04:08:46.593Z,0.00
2022-12-12T04:09:46.556Z,0.00
2022-12-12T04:10:46.527Z,0.00
2022-12-12T04:11:46.496Z,0.00
2022-12-12T04:12:46.466Z,0.00
2022-12-12T04:13:46.465Z,0.00
2022-12-12T04:14:46.404Z,0.00
2022-12-12T04:15:46.372Z,0.00
2022-12-12T04:16:46.451Z,0.00
2022-12-12T04:17:46.327Z,0.00
2022-12-12T04:18:46.281Z,0.00
2022-12-12T04:19:46.303Z,0.00
2022-12-12T04:20:46.217Z,0.00
2022-12-12T04:21:46.188Z,0.00
2022-12-12T04:22:46.158Z,0.00
2022-12-12T04:23:46.127Z,0.00
2022-12-12T04:24:46.097Z,0.00
2022-12-12T04:25:46.065Z,0.00
2022-12-12T04:26:46.032Z,0.00
2022-12-12T04:27:46.001Z,0.00
2022-12-12T04:28:45.974Z,0.00
2022-12-12T04:29:45.962Z,0.00
2022-12-12T04:30:45.916Z,0.00
2022-12-12T04:31:45.922Z,0.00
2022-12-12T04:32:45.852Z,0.00
2022-12-12T04:33:45.817Z,0.00
2022-12-12T04:34:45.792Z,0.00
2022-12-12T04:35:45.757Z,0.00
2022-12-12T04:36:45.727Z,0.00
2022-12-12T04:37:45.692Z,0.00
2022-12-12T04:38:45.664Z,0.00
2022-12-12T04:39:45.632Z,0.00
2022-12-12T04:40:45.604Z,0.00
2022-12-12T04:41:45.572Z,0.00
2022-12-12T04:42:45.541Z,0.00
2022-12-12T04:43:45.509Z,0.00
2022-12-12T04:44:45.479Z,0.00
2022-12-12T04:45:45.522Z,0.00
2022-12-12T04:46:45.419Z,0.00
2022-12-12T04:47:45.388Z,0.00
2022-12-12T04:48:45.357Z,0.00
2022-12-12T04:49:45.324Z,0.00
2022-12-12T04:50:45.293Z,0.00
2022-12-12T04:51:45.261Z,0.00
2022-12-12T04:52:45.232Z,0.00
2022-12-12T04:53:45.202Z,0.00
2022-12-12T04:54:45.168Z,0.00
2022-12-12T04:55:45.139Z,0.00
2022-12-12T04:56:45.111Z,0.00
2022-12-12T04:57:45.076Z,0.00
2022-12-12T04:58:45.055Z,0.00
2022-12-12T04:59:45.012Z,0.00
2022-12-12T05:00:45.058Z,0.00
2022-12-12T05:01:49.702Z,0.00
2022-12-12T05:02:45.033Z,0.00
2022-12-12T05:03:44.890Z,0.00
2022-12-12T05:04:44.861Z,0.00
2022-12-12T05:05:44.828Z,0.00
2022-12-12T05:06:44.796Z,0.00
2022-12-12T05:07:44.766Z,0.00
2022-12-12T05:08:44.737Z,0.00
2022-12-12T05:09:44.703Z,0.00
2022-12-12T05:10:44.673Z,0.00
2022-12-12T05:11:44.640Z,0.00
2022-12-12T05:12:44.615Z,0.00
2022-12-12T05:13:44.580Z,0.00
2022-12-12T05:14:44.548Z,0.00
2022-12-12T05:15:45.147Z,0.00
2022-12-12T05:16:44.558Z,0.00
2022-12-12T05:17:44.480Z,0.00
2022-12-12T05:18:44.424Z,0.00
2022-12-12T05:19:44.391Z,0.00
2022-12-12T05:20:44.362Z,0.00
2022-12-12T05:21:44.333Z,0.00
2022-12-12T05:22:44.307Z,0.00
2022-12-12T05:23:44.271Z,0.00
2022-12-12T05:24:44.239Z,0.00
2022-12-12T05:25:44.212Z,0.00
2022-12-12T05:26:44.174Z,0.00
2022-12-12T05:27:44.143Z,0.00
2022-12-12T05:28:44.117Z,0.00
2022-12-12T05:29:44.084Z,0.00
2022-12-12T05:30:44.092Z,0.00
2022-12-12T05:31:44.021Z,0.00
2022-12-12T05:32:43.992Z,0.00
2022-12-12T05:33:43.984Z,0.00
2022-12-12T05:34:43.929Z,0.00
2022-12-12T05:35:43.900Z,0.00
2022-12-12T05:36:43.867Z,0.00
2022-12-12T05:37:48.200Z,0.00
2022-12-12T05:38:43.809Z,0.00
2022-12-12T05:39:43.781Z,0.00
2022-12-12T05:40:43.746Z,0.00
2022-12-12T05:41:43.712Z,0.00
2022-12-12T05:42:43.682Z,0.00
2022-12-12T05:43:43.650Z,0.00
2022-12-12T05:44:43.621Z,0.00
2022-12-12T05:45:43.640Z,0.00
2022-12-12T05:46:43.557Z,0.00
2022-12-12T05:47:43.526Z,0.00
2022-12-12T05:48:43.501Z,0.00
2022-12-12T05:49:43.490Z,0.00
2022-12-12T05:50:43.435Z,0.00
2022-12-12T05:51:43.404Z,0.00
2022-12-12T05:52:43.374Z,0.00
2022-12-12T05:53:43.427Z,0.00
2022-12-12T05:54:43.309Z,0.00
2022-12-12T05:55:43.278Z,0.00
2022-12-12T05:56:43.249Z,0.00
2022-12-12T05:57:43.222Z,0.00
2022-12-12T05:58:43.187Z,0.00
2022-12-12T05:59:43.155Z,0.00
2022-12-12T06:00:43.125Z,0.00
2022-12-12T06:01:43.094Z,0.00
2022-12-12T06:02:43.106Z,0.00
2022-12-12T06:03:43.113Z,0.00
2022-12-12T06:04:43.003Z,0.00
2022-12-12T06:05:42.996Z,0.00
2022-12-12T06:06:42.937Z,0.00
2022-12-12T06:07:42.910Z,0.00
2022-12-12T06:08:42.979Z,0.00
2022-12-12T06:09:42.854Z,0.00
2022-12-12T06:10:42.815Z,0.00
2022-12-12T06:11:42.786Z,0.00
2022-12-12T06:12:42.753Z,0.00
2022-12-12T06:13:42.722Z,0.00
2022-12-12T06:14:42.724Z,0.00
2022-12-12T06:15:42.709Z,0.00
2022-12-12T06:16:42.632Z,0.00
2022-12-12T06:17:42.599Z,0.00
2022-12-12T06:18:42.573Z,0.00
2022-12-12T06:19:42.536Z,0.00
2022-12-12T06:20:42.506Z,0.00
2022-12-12T06:21:42.497Z,0.00
2022-12-12T06:22:42.446Z,0.00
2022-12-12T06:23:42.411Z,0.00
2022-12-12T06:24:42.381Z,0.00
2022-12-12T06:25:42.347Z,0.00
2022-12-12T06:26:42.321Z,0.00
2022-12-12T06:27:42.285Z,0.00
2022-12-12T06:28:42.259Z,0.00
2022-12-12T06:29:42.225Z,0.00
2022-12-12T06:30:42.260Z,0.00
2022-12-12T06:31:42.238Z,0.00
2022-12-12T06:32:42.134Z,0.00
2022-12-12T06:33:42.105Z,0.00
2022-12-12T06:34:42.068Z,0.00
2022-12-12T06:35:42.039Z,0.00
2022-12-12T06:36:42.005Z,0.00
2022-12-12T06:37:42.002Z,0.00
2022-12-12T06:38:41.944Z,0.00
2022-12-12T06:39:41.915Z,0.00
2022-12-12T06:40:41.883Z,0.00
2022-12-12T06:41:41.852Z,0.00
2022-12-12T06:42:47.735Z,0.00
2022-12-12T06:43:41.792Z,0.00
2022-12-12T06:44:41.757Z,0.00
2022-12-12T06:45:41.731Z,0.00
2022-12-12T06:46:41.736Z,0.00
2022-12-12T06:47:41.666Z,0.00
2022-12-12T06:48:41.633Z,0.00
2022-12-12T06:49:41.604Z,0.00
2022-12-12T06:50:41.570Z,0.00
2022-12-12T06:51:41.544Z,0.00
2022-12-12T06:52:41.511Z,0.00
2022-12-12T06:53:41.503Z,0.00
2022-12-12T06:54:41.459Z,0.00
2022-12-12T06:55:41.420Z,0.00
2022-12-12T06:56:47.669Z,0.00
2022-12-12T06:57:41.362Z,0.00
2022-12-12T06:58:41.325Z,0.00
2022-12-12T06:59:41.302Z,0.00
2022-12-12T07:00:41.270Z,0.00
2022-12-12T07:01:41.268Z,0.00
2022-12-12T07:02:41.233Z,0.00
2022-12-12T07:03:41.169Z,0.00
2022-12-12T07:04:41.139Z,0.00
2022-12-12T07:05:41.112Z,0.00
2022-12-12T07:06:41.074Z,0.00
2022-12-12T07:07:41.046Z,0.00
2022-12-12T07:08:41.013Z,0.00
2022-12-12T07:09:41.002Z,0.00
2022-12-12T07:10:40.949Z,0.00
2022-12-12T07:11:40.922Z,0.00
2022-12-12T07:12:40.890Z,0.00
2022-12-12T07:13:40.861Z,0.00
2022-12-12T07:14:40.826Z,0.00
2022-12-12T07:15:40.825Z,0.00
2022-12-12T07:16:40.767Z,0.00
2022-12-12T07:17:40.741Z,0.00
2022-12-12T07:18:40.708Z,0.00
2022-12-12T07:19:40.684Z,0.00
2022-12-12T07:20:40.642Z,0.00
2022-12-12T07:21:40.615Z,0.00
2022-12-12T07:22:40.577Z,0.00
2022-12-12T07:23:40.548Z,0.00
2022-12-12T07:24:40.516Z,0.00
2022-12-12T07:25:40.519Z,0.00
2022-12-12T07:26:40.455Z,4.00
2022-12-12T07:27:40.425Z,4.00
2022-12-12T07:28:40.396Z,4.00
2022-12-12T07:29:40.371Z,4.00
2022-12-12T07:30:40.333Z,4.00
2022-12-12T07:31:40.300Z,4.00
2022-12-12T07:32:40.269Z,4.00
2022-12-12T07:33:44.114Z,0.00
2022-12-12T07:34:40.209Z,0.00
2022-12-12T07:35:40.181Z,4.00
2022-12-12T07:36:40.146Z,4.00
2022-12-12T07:37:40.115Z,4.00
2022-12-12T07:38:40.091Z,4.00
2022-12-12T07:39:40.051Z,4.00
2022-12-12T07:40:40.018Z,4.00
2022-12-12T07:41:40.853Z,4.00
2022-12-12T07:42:39.959Z,4.00
2022-12-12T07:43:43.415Z,4.00
2022-12-12T07:44:39.895Z,4.00
2022-12-12T07:45:39.866Z,8.00
2022-12-12T07:46:39.929Z,4.00
2022-12-12T07:47:39.803Z,8.00
2022-12-12T07:48:39.773Z,8.00
2022-12-12T07:49:39.745Z,8.00
2022-12-12T07:50:39.711Z,8.00
2022-12-12T07:51:42.943Z,8.00
2022-12-12T07:52:39.650Z,8.00
2022-12-12T07:53:39.620Z,8.00
2022-12-12T07:54:39.585Z,8.00
2022-12-12T07:55:39.556Z,8.00
2022-12-12T07:56:39.591Z,8.00
2022-12-12T07:57:39.517Z,8.00
2022-12-12T07:58:39.463Z,8.00
2022-12-12T07:59:39.433Z,12.00
2022-12-12T08:00:39.400Z,8.00
2022-12-12T08:01:39.467Z,8.00
2022-12-12T08:02:39.340Z,8.00
2022-12-12T08:03:39.308Z,12.00
2022-12-12T08:04:39.294Z,12.00
2022-12-12T08:05:39.260Z,12.00
2022-12-12T08:06:39.213Z,12.00
2022-12-12T08:07:39.186Z,8.00
2022-12-12T08:08:39.150Z,8.00
2022-12-12T08:09:39.126Z,12.00
2022-12-12T08:10:39.090Z,8.00
2022-12-12T08:11:44.635Z,12.00
2022-12-12T08:12:39.031Z,12.00
2022-12-12T08:13:39.024Z,12.00
2022-12-12T08:14:38.968Z,8.00
2022-12-12T08:15:39.032Z,12.00
2022-12-12T08:16:38.901Z,12.00
2022-12-12T08:17:38.877Z,12.00
2022-12-12T08:18:38.848Z,12.00
2022-12-12T08:19:38.815Z,12.00
2022-12-12T08:20:38.782Z,16.00
2022-12-12T08:21:38.751Z,12.00
2022-12-12T08:22:38.717Z,16.00
2022-12-12T08:23:38.689Z,12.00
2022-12-12T08:24:38.658Z,16.00
2022-12-12T08:25:38.744Z,16.00
2022-12-12T08:26:38.594Z,20.00
2022-12-12T08:27:38.562Z,16.00
2022-12-12T08:28:38.531Z,20.00
2022-12-12T08:29:38.525Z,20.00
2022-12-12T08:30:38.471Z,20.00
2022-12-12T08:31:38.508Z,20.00
2022-12-12T08:32:38.410Z,20.00
2022-12-12T08:33:38.376Z,20.00
2022-12-12T08:34:38.347Z,20.00
2022-12-12T08:35:38.315Z,20.00
2022-12-12T08:36:38.286Z,20.00
2022-12-12T08:37:38.253Z,20.00
2022-12-12T08:38:38.220Z,20.00
2022-12-12T08:39:38.201Z,20.00
2022-12-12T08:40:38.196Z,20.00
2022-12-12T08:41:38.218Z,20.00
2022-12-12T08:42:38.202Z,24.00
2022-12-12T08:43:38.065Z,20.00
2022-12-12T08:44:38.037Z,24.00
2022-12-12T08:45:38.027Z,24.00
2022-12-12T08:46:38.047Z,28.00
2022-12-12T08:47:37.942Z,28.00
2022-12-12T08:48:37.910Z,24.00
2022-12-12T08:49:37.885Z,24.00
2022-12-12T08:50:37.849Z,24.00
2022-12-12T08:51:37.833Z,24.00
2022-12-12T08:52:37.787Z,24.00
2022-12-12T08:53:37.761Z,24.00
2022-12-12T08:54:37.723Z,24.00
2022-12-12T08:55:37.697Z,28.00
2022-12-12T08:56:37.662Z,28.00
2022-12-12T08:57:37.632Z,28.00
2022-12-12T08:58:37.602Z,28.00
2022-12-12T08:59:37.583Z,28.00
2022-12-12T09:00:37.542Z,28.00
2022-12-12T09:01:37.798Z,24.00
2022-12-12T09:02:37.794Z,24.00
2022-12-12T09:03:37.510Z,24.00
2022-12-12T09:04:37.546Z,28.00
2022-12-12T09:05:37.652Z,28.00
2022-12-12T09:06:37.455Z,28.00
2022-12-12T09:07:37.379Z,28.00
2022-12-12T09:08:37.362Z,32.00
2022-12-12T09:09:37.296Z,32.00
2022-12-12T09:10:37.285Z,32.00
2022-12-12T09:11:37.241Z,32.00
2022-12-12T09:12:41.704Z,32.00
2022-12-12T09:13:37.217Z,36.00
2022-12-12T09:14:37.150Z,32.00
2022-12-12T09:15:37.169Z,36.00
2022-12-12T09:16:37.230Z,32.00
2022-12-12T09:17:37.089Z,32.00
2022-12-12T09:18:37.058Z,32.00
2022-12-12T09:19:37.038Z,36.00
2022-12-12T09:20:37.015Z,36.00
2022-12-12T09:21:36.932Z,36.00
2022-12-12T09:22:36.906Z,36.00
2022-12-12T09:23:36.870Z,36.00
2022-12-12T09:24:36.869Z,40.00
2022-12-12T09:25:40.043Z,36.00
2022-12-12T09:26:36.847Z,36.00
2022-12-12T09:27:36.766Z,40.00
2022-12-12T09:28:36.732Z,36.00
2022-12-12T09:29:36.656Z,36.00
2022-12-12T09:30:36.672Z,40.00
2022-12-12T09:31:36.756Z,40.00
2022-12-12T09:32:36.593Z,44.00
2022-12-12T09:33:36.593Z,44.00
2022-12-12T09:34:36.578Z,44.00
2022-12-12T09:35:36.459Z,48.00
2022-12-12T09:36:36.432Z,52.00
2022-12-12T09:37:36.400Z,48.00
2022-12-12T09:38:36.367Z,52.00
2022-12-12T09:39:36.337Z,52.00
2022-12-12T09:40:36.301Z,52.00
2022-12-12T09:41:36.282Z,52.00
2022-12-12T09:42:36.241Z,52.00
2022-12-12T09:43:36.217Z,56.00
2022-12-12T09:44:36.189Z,56.00
2022-12-12T09:45:36.216Z,56.00
2022-12-12T09:46:36.133Z,56.00
2022-12-12T09:47:36.087Z,56.00
2022-12-12T09:48:36.058Z,56.00
2022-12-12T09:49:43.041Z,60.00
2022-12-12T09:50:35.992Z,64.00
2022-12-12T09:51:35.970Z,64.00
2022-12-12T09:52:35.932Z,64.00
2022-12-12T09:53:35.901Z,68.00
2022-12-12T09:54:35.873Z,68.00
2022-12-12T09:55:35.841Z,64.00
2022-12-12T09:56:35.810Z,64.00
2022-12-12T09:57:35.795Z,60.00
2022-12-12T09:58:35.748Z,60.00
2022-12-12T09:59:35.718Z,60.00
2022-12-12T10:00:35.778Z,60.00
2022-12-12T10:01:35.662Z,60.00
2022-12-12T10:02:35.710Z,56.00
2022-12-12T10:03:35.592Z,56.00
2022-12-12T10:04:35.559Z,56.00
2022-12-12T10:05:35.555Z,56.00
2022-12-12T10:06:37.765Z,60.00
2022-12-12T10:07:35.468Z,56.00
2022-12-12T10:08:35.478Z,56.00
2022-12-12T10:09:35.411Z,60.00
2022-12-12T10:10:35.374Z,60.00
2022-12-12T10:11:35.348Z,56.00
2022-12-12T10:12:35.315Z,56.00
2022-12-12T10:13:35.292Z,60.00
2022-12-12T10:14:35.262Z,60.00
2022-12-12T10:15:35.222Z,64.00
2022-12-12T10:16:35.278Z,64.00
2022-12-12T10:17:35.172Z,68.00
2022-12-12T10:18:35.127Z,68.00
2022-12-12T10:19:35.100Z,68.00
2022-12-12T10:20:35.066Z,72.00
2022-12-12T10:21:35.052Z,72.00
2022-12-12T10:22:35.013Z,72.00
2022-12-12T10:23:34.979Z,76.00
2022-12-12T10:24:34.944Z,76.00
2022-12-12T10:25:34.913Z,76.00
2022-12-12T10:26:34.887Z,72.00
2022-12-12T10:27:34.851Z,76.00
2022-12-12T10:28:34.846Z,80.00
2022-12-12T10:29:41.047Z,80.00
2022-12-12T10:30:34.759Z,80.00
2022-12-12T10:31:34.785Z,80.00
2022-12-12T10:32:34.697Z,76.00
2022-12-12T10:33:34.669Z,76.00
2022-12-12T10:34:34.635Z,76.00
2022-12-12T10:35:34.607Z,76.00
2022-12-12T10:36:34.572Z,76.00
2022-12-12T10:37:34.566Z,76.00
2022-12-12T10:38:34.519Z,76.00
2022-12-12T10:39:34.480Z,76.00
2022-12-12T10:40:34.447Z,76.00
2022-12-12T10:41:34.427Z,80.00
2022-12-12T10:42:34.395Z,76.00
2022-12-12T10:43:34.358Z,72.00
2022-12-12T10:44:34.326Z,68.00
2022-12-12T10:45:34.389Z,68.00
2022-12-12T10:46:34.452Z,72.00
2022-12-12T10:47:34.284Z,68.00
2022-12-12T10:48:34.253Z,72.00
2022-12-12T10:49:34.202Z,68.00
2022-12-12T10:50:34.140Z,68.00
2022-12-12T10:51:34.107Z,68.00
2022-12-12T10:52:34.113Z,72.00
2022-12-12T10:53:34.068Z,64.00
2022-12-12T10:54:34.015Z,68.00
2022-12-12T10:55:33.984Z,72.00
2022-12-12T10:56:33.967Z,68.00
2022-12-12T10:57:33.924Z,72.00
2022-12-12T10:58:33.895Z,76.00
2022-12-12T10:59:33.870Z,72.00
2022-12-12T11:00:33.834Z,68.00
2022-12-12T11:02:07.875Z,68.00
2022-12-12T11:02:34.055Z,68.00
2022-12-12T11:03:33.810Z,72.00
2022-12-12T11:04:33.708Z,68.00
2022-12-12T11:05:33.677Z,68.00
2022-12-12T11:06:33.652Z,72.00
2022-12-12T11:07:33.613Z,72.00
2022-12-12T11:08:33.621Z,76.00
2022-12-12T11:09:33.575Z,72.00
2022-12-12T11:10:34.505Z,72.00
2022-12-12T11:11:33.594Z,68.00
2022-12-12T11:12:33.477Z,64.00
2022-12-12T11:13:33.429Z,64.00
2022-12-12T11:14:33.405Z,64.00
2022-12-12T11:15:33.376Z,60.00
2022-12-12T11:16:33.382Z,56.00
2022-12-12T11:17:33.307Z,60.00
2022-12-12T11:18:33.278Z,64.00
2022-12-12T11:19:33.244Z,68.00
2022-12-12T11:20:33.217Z,76.00
2022-12-12T11:21:33.186Z,72.00
2022-12-12T11:22:33.154Z,76.00
2022-12-12T11:23:33.129Z,72.00
2022-12-12T11:24:33.095Z,72.00
2022-12-12T11:25:33.111Z,76.00
2022-12-12T11:26:33.034Z,76.00
2022-12-12T11:27:32.998Z,80.00
2022-12-12T11:28:32.970Z,76.00
2022-12-12T11:29:32.938Z,80.00
2022-12-12T11:30:32.907Z,80.00
2022-12-12T11:31:32.947Z,80.00
2022-12-12T11:32:32.873Z,84.00
2022-12-12T11:33:32.818Z,88.00
2022-12-12T11:34:34.137Z,88.00
2022-12-12T11:35:32.757Z,84.00
2022-12-12T11:36:32.725Z,84.00
2022-12-12T11:37:32.693Z,84.00
2022-12-12T11:38:32.663Z,76.00
2022-12-12T11:39:32.633Z,76.00
2022-12-12T11:40:32.603Z,72.00
2022-12-12T11:41:32.597Z,72.00
2022-12-12T11:42:32.540Z,72.00
2022-12-12T11:43:32.510Z,68.00
2022-12-12T11:44:32.483Z,72.00
2022-12-12T11:45:32.518Z,72.00
2022-12-12T11:46:32.425Z,72.00
2022-12-12T11:47:32.386Z,76.00
2022-12-12T11:48:32.357Z,76.00
2022-12-12T11:49:32.376Z,76.00
2022-12-12T11:50:32.294Z,76.00
2022-12-12T11:51:32.275Z,72.00
2022-12-12T11:52:32.235Z,76.00
2022-12-12T11:53:32.203Z,72.00
2022-12-12T11:54:32.173Z,72.00
2022-12-12T11:55:32.142Z,64.00
2022-12-12T11:56:32.111Z,60.00
2022-12-12T11:57:32.137Z,60.00
2022-12-12T11:58:32.051Z,56.00
2022-12-12T11:59:32.021Z,56.00
2022-12-12T12:00:32.000Z,52.00
2022-12-12T12:01:31.982Z,56.00
2022-12-12T12:02:31.938Z,56.00
2022-12-12T12:03:31.937Z,52.00
2022-12-12T12:04:31.901Z,48.00
2022-12-12T12:05:31.836Z,52.00
2022-12-12T12:06:31.807Z,52.00
2022-12-12T12:07:31.786Z,48.00
2022-12-12T12:08:31.770Z,48.00
2022-12-12T12:09:31.712Z,44.00
2022-12-12T12:10:31.689Z,44.00
2022-12-12T12:11:31.651Z,48.00
2022-12-12T12:12:31.638Z,52.00
2022-12-12T12:13:31.638Z,56.00
2022-12-12T12:14:31.563Z,64.00
2022-12-12T12:15:31.549Z,68.00
2022-12-12T12:16:31.634Z,76.00
2022-12-12T12:17:31.485Z,84.00
2022-12-12T12:18:31.439Z,88.00
2022-12-12T12:19:31.415Z,92.00
2022-12-12T12:20:31.385Z,96.00
2022-12-12T12:21:31.349Z,100.00
2022-12-12T12:22:31.318Z,104.00
2022-12-12T12:23:33.112Z,108.00
2022-12-12T12:24:31.266Z,108.00
2022-12-12T12:25:31.236Z,112.00
2022-12-12T12:26:31.193Z,116.00
2022-12-12T12:27:31.164Z,112.00
2022-12-12T12:28:31.134Z,108.00
2022-12-12T12:29:31.124Z,112.00
2022-12-12T12:30:31.110Z,104.00
2022-12-12T12:31:31.050Z,108.00
2022-12-12T12:32:31.020Z,104.00
2022-12-12T12:33:30.992Z,108.00
2022-12-12T12:34:30.947Z,108.00
2022-12-12T12:35:30.927Z,108.00
2022-12-12T12:36:30.897Z,112.00
2022-12-12T12:37:30.856Z,112.00
2022-12-12T12:38:30.828Z,112.00
2022-12-12T12:39:30.794Z,112.00
2022-12-12T12:40:30.776Z,116.00
2022-12-12T12:41:30.738Z,124.00
2022-12-12T12:42:30.711Z,128.00
2022-12-12T12:43:30.698Z,136.00
2022-12-12T12:44:30.644Z,144.00
2022-12-12T12:45:30.632Z,144.00
2022-12-12T12:46:30.631Z,140.00
2022-12-12T12:47:30.549Z,132.00
2022-12-12T12:48:30.572Z,128.00
2022-12-12T12:49:30.492Z,124.00
2022-12-12T12:50:30.458Z,120.00
2022-12-12T12:51:30.452Z,116.00
2022-12-12T12:52:30.443Z,108.00
2022-12-12T12:53:30.463Z,108.00
2022-12-12T12:54:30.663Z,116.00
2022-12-12T12:55:30.398Z,124.00
2022-12-12T12:56:30.291Z,136.00
2022-12-12T12:57:30.250Z,144.00
2022-12-12T12:58:30.214Z,136.00
2022-12-12T12:59:30.185Z,140.00
2022-12-12T13:00:30.153Z,144.00
2022-12-12T13:01:30.264Z,144.00
2022-12-12T13:02:30.159Z,140.00
2022-12-12T13:03:30.062Z,136.00
2022-12-12T13:04:30.036Z,128.00
2022-12-12T13:05:30.003Z,120.00
2022-12-12T13:06:29.970Z,124.00